首页
METAR-TAF:

METAR-TAF

机场 :

达喀尔-约夫-利奥波德·塞达尔·桑戈尔国际机场

達喀爾, 塞内加尔

纬度: 14-44N, 经度: 017-30W, 海拔: 27米

当前天气观测

该预报发布于45分钟前的08:00 UTC
静风
温度 26°C
湿度 79%
气压 1015 hPa
能见度10公里或以上
散云层高于1300英尺
少量云层高于1600英尺, 塔状积云.

METAR: GOOY 140800Z 00000KT 9999 SCT013 FEW016TCU 26/22 Q1015

时间: 08:45 (08:45 UTC)

预报

该预报发布于3小时和15分钟前的05:30 UTC
预报有效从14日的 06点(UTC)到 15日的 12点(UTC)
风速8节,风向西北
能见度10公里或以上
散云层高于1200英尺

TAF: GOOY 140530Z 1406/1512 32008KT 9999 SCT012

超过4000个机场的气象观测和天气预报(METAR&TAF报告)。

可查询的气象台以黄色和红色小点在地图上表示。

将鼠标移到小点上方,可查看气象台名称。

然后点击查看天气观测和预报。

如需切换地图:点击带黑十字的绿色按钮放大地图;点击带横线的绿色按钮缩小地图;或者点击绿色箭头查看邻近地区的地图。


METAR-TAF: